createdAt,value
2018-12-10T00:00:01.460Z,999.13
2018-12-10T00:01:01.450Z,999.16
2018-12-10T00:02:01.451Z,999.11
2018-12-10T00:03:01.433Z,999.12
2018-12-10T00:04:01.412Z,999.18
2018-12-10T00:05:01.446Z,999.15
2018-12-10T00:06:01.395Z,999.20
2018-12-10T00:07:01.421Z,999.20
2018-12-10T00:08:01.393Z,999.17
2018-12-10T00:09:01.371Z,999.21
2018-12-10T00:10:01.353Z,999.19
2018-12-10T00:11:01.347Z,999.24
2018-12-10T00:12:01.393Z,999.26
2018-12-10T00:13:01.355Z,999.24
2018-12-10T00:14:01.326Z,999.26
2018-12-10T00:15:01.319Z,999.32
2018-12-10T00:16:01.294Z,999.29
2018-12-10T00:17:01.277Z,999.28
2018-12-10T00:18:01.264Z,999.23
2018-12-10T00:19:01.252Z,999.20
2018-12-10T00:20:01.262Z,999.18
2018-12-10T00:21:01.251Z,999.21
2018-12-10T00:22:01.225Z,999.29
2018-12-10T00:23:01.216Z,999.29
2018-12-10T00:24:01.200Z,999.25
2018-12-10T00:25:01.190Z,999.34
2018-12-10T00:26:01.224Z,999.30
2018-12-10T00:27:01.166Z,999.36
2018-12-10T00:28:01.167Z,999.38
2018-12-10T00:29:01.148Z,999.37
2018-12-10T00:30:01.138Z,999.47
2018-12-10T00:31:01.157Z,999.46
2018-12-10T00:32:01.129Z,999.50
2018-12-10T00:33:01.103Z,999.44
2018-12-10T00:34:01.095Z,999.53
2018-12-10T00:35:01.104Z,999.51
2018-12-10T00:36:01.092Z,999.55
2018-12-10T00:37:01.113Z,999.57
2018-12-10T00:38:01.066Z,999.59
2018-12-10T00:39:01.037Z,999.62
2018-12-10T00:40:01.051Z,999.62
2018-12-10T00:41:01.020Z,999.63
2018-12-10T00:42:01.033Z,999.58
2018-12-10T00:43:01.031Z,999.66
2018-12-10T00:44:00.998Z,999.62
2018-12-10T00:45:00.972Z,999.63
2018-12-10T00:46:00.962Z,999.62
2018-12-10T00:47:00.950Z,999.66
2018-12-10T00:48:00.988Z,999.69
2018-12-10T00:49:00.933Z,999.63
2018-12-10T00:50:00.921Z,999.76
2018-12-10T00:51:00.907Z,999.70
2018-12-10T00:52:00.903Z,999.67
2018-12-10T00:53:00.889Z,999.62
2018-12-10T00:54:00.892Z,999.66
2018-12-10T00:55:00.878Z,999.67
2018-12-10T00:56:00.850Z,999.69
2018-12-10T00:57:00.842Z,999.72
2018-12-10T00:58:00.832Z,999.70
2018-12-10T00:59:00.840Z,999.74
2018-12-10T01:00:00.818Z,999.76
2018-12-10T01:01:00.800Z,999.82
2018-12-10T01:02:00.789Z,999.84
2018-12-10T01:03:00.788Z,999.82
2018-12-10T01:04:00.797Z,999.94
2018-12-10T01:05:00.777Z,999.88
2018-12-10T01:06:00.752Z,999.95
2018-12-10T01:07:00.746Z,999.94
2018-12-10T01:08:00.720Z,999.92
2018-12-10T01:09:00.737Z,999.96
2018-12-10T01:10:00.700Z,999.96
2018-12-10T01:11:00.713Z,1000.00
2018-12-10T01:12:00.685Z,1000.03
2018-12-10T01:13:00.670Z,1000.00
2018-12-10T01:14:00.658Z,1000.07
2018-12-10T01:15:00.669Z,1000.07
2018-12-10T01:16:00.634Z,999.99
2018-12-10T01:17:00.630Z,1000.07
2018-12-10T01:18:00.615Z,1000.10
2018-12-10T01:19:00.602Z,1000.06
2018-12-10T01:20:00.616Z,1000.10
2018-12-10T01:21:00.585Z,1000.10
2018-12-10T01:22:00.571Z,1000.15
2018-12-10T01:23:00.571Z,1000.14
2018-12-10T01:24:00.562Z,1000.13
2018-12-10T01:25:00.564Z,1000.13
2018-12-10T01:26:00.532Z,1000.13
2018-12-10T01:27:00.525Z,1000.14
2018-12-10T01:28:00.521Z,1000.17
2018-12-10T01:29:00.501Z,1000.13
2018-12-10T01:30:00.508Z,1000.18
2018-12-10T01:31:00.475Z,1000.15
2018-12-10T01:32:00.483Z,1000.18
2018-12-10T01:33:00.458Z,1000.13
2018-12-10T01:34:00.448Z,1000.16
2018-12-10T01:35:00.459Z,1000.14
2018-12-10T01:36:00.440Z,1000.19
2018-12-10T01:37:00.419Z,1000.14
2018-12-10T01:38:00.421Z,1000.16
2018-12-10T01:39:00.399Z,1000.19
2018-12-10T01:40:00.383Z,1000.21
2018-12-10T01:41:00.397Z,1000.23
2018-12-10T01:42:00.393Z,1000.23
2018-12-10T01:43:00.351Z,1000.27
2018-12-10T01:44:00.356Z,1000.26
2018-12-10T01:45:00.392Z,1000.27
2018-12-10T01:46:00.323Z,1000.23
2018-12-10T01:47:00.339Z,1000.31
2018-12-10T01:48:00.296Z,1000.32
2018-12-10T01:49:00.287Z,1000.36
2018-12-10T01:50:00.291Z,1000.40
2018-12-10T01:51:00.265Z,1000.44
2018-12-10T01:52:00.259Z,1000.46
2018-12-10T01:53:00.267Z,1000.48
2018-12-10T01:54:00.234Z,1000.49
2018-12-10T01:55:00.221Z,1000.49
2018-12-10T01:56:00.253Z,1000.53
2018-12-10T01:57:00.206Z,1000.57
2018-12-10T01:58:00.195Z,1000.63
2018-12-10T01:59:00.186Z,1000.61
2018-12-10T02:00:00.199Z,1000.63
2018-12-10T02:01:00.159Z,1000.59
2018-12-10T02:02:00.155Z,1000.59
2018-12-10T02:03:00.139Z,1000.61
2018-12-10T02:04:00.132Z,1000.63
2018-12-10T02:05:00.137Z,1000.61
2018-12-10T02:06:00.111Z,1000.66
2018-12-10T02:07:00.147Z,1000.72
2018-12-10T02:08:00.086Z,1000.69
2018-12-10T02:09:00.074Z,1000.75
2018-12-10T02:10:00.068Z,1000.77
2018-12-10T02:11:00.058Z,1000.76
2018-12-10T02:12:00.040Z,1000.84
2018-12-10T02:13:00.058Z,1000.83
2018-12-10T02:14:00.031Z,1000.84
2018-12-10T02:15:00.029Z,1000.79
2018-12-10T02:16:00.008Z,1000.83
2018-12-10T02:16:59.992Z,1000.80
2018-12-10T02:17:59.983Z,1000.81
2018-12-10T02:18:59.974Z,1000.80
2018-12-10T02:19:59.976Z,1000.77
2018-12-10T02:20:59.947Z,1000.79
2018-12-10T02:21:59.944Z,1000.87
2018-12-10T02:22:59.924Z,1000.90
2018-12-10T02:23:59.922Z,1000.84
2018-12-10T02:24:59.930Z,1000.87
2018-12-10T02:25:59.896Z,1000.86
2018-12-10T02:26:59.908Z,1000.79
2018-12-10T02:27:59.879Z,1000.86
2018-12-10T02:28:59.864Z,1000.86
2018-12-10T02:29:59.859Z,1000.84
2018-12-10T02:30:59.853Z,1000.91
2018-12-10T02:31:59.835Z,1000.91
2018-12-10T02:32:59.837Z,1000.89
2018-12-10T02:33:59.806Z,1000.86
2018-12-10T02:34:59.825Z,1000.83
2018-12-10T02:35:59.795Z,1000.84
2018-12-10T02:36:59.788Z,1000.92
2018-12-10T02:37:59.810Z,1000.90
2018-12-10T02:38:59.760Z,1000.90
2018-12-10T02:40:06.280Z,1000.94
2018-12-10T02:40:59.750Z,1000.92
2018-12-10T02:41:59.730Z,1000.98
2018-12-10T02:42:59.725Z,1000.98
2018-12-10T02:43:59.719Z,1001.03
2018-12-10T02:44:59.689Z,1001.11
2018-12-10T02:45:59.685Z,1001.01
2018-12-10T02:46:59.672Z,1001.08
2018-12-10T02:47:59.661Z,1001.07
2018-12-10T02:48:59.678Z,1001.06
2018-12-10T02:49:59.643Z,1001.15
2018-12-10T02:50:59.630Z,1001.10
2018-12-10T02:52:01.681Z,1001.10
2018-12-10T02:52:59.607Z,1001.14
2018-12-10T02:53:59.639Z,1001.17
2018-12-10T02:54:59.610Z,1001.17
2018-12-10T02:55:59.578Z,1001.12
2018-12-10T02:56:59.572Z,1001.14
2018-12-10T02:57:59.553Z,1001.13
2018-12-10T02:58:59.547Z,1001.06
2018-12-10T02:59:59.565Z,1001.00
2018-12-10T03:00:59.542Z,1001.06
2018-12-10T03:01:59.528Z,1001.09
2018-12-10T03:02:59.513Z,1001.10
2018-12-10T03:03:59.486Z,1001.13
2018-12-10T03:04:59.477Z,1001.18
2018-12-10T03:05:59.493Z,1001.17
2018-12-10T03:06:59.469Z,1001.22
2018-12-10T03:07:59.459Z,1001.19
2018-12-10T03:08:59.439Z,1001.26
2018-12-10T03:09:59.444Z,1001.31
2018-12-10T03:10:59.427Z,1001.25
2018-12-10T03:11:59.402Z,1001.28
2018-12-10T03:12:59.390Z,1001.29
2018-12-10T03:13:59.388Z,1001.26
2018-12-10T03:14:59.405Z,1001.29
2018-12-10T03:15:59.381Z,1001.30
2018-12-10T03:16:59.370Z,1001.30
2018-12-10T03:17:59.339Z,1001.29
2018-12-10T03:18:59.329Z,1001.30
2018-12-10T03:19:59.341Z,1001.27
2018-12-10T03:20:59.316Z,1001.30
2018-12-10T03:21:59.345Z,1001.29
2018-12-10T03:22:59.295Z,1001.28
2018-12-10T03:23:59.276Z,1001.20
2018-12-10T03:24:59.303Z,1001.26
2018-12-10T03:25:59.256Z,1001.30
2018-12-10T03:26:59.249Z,1001.34
2018-12-10T03:27:59.288Z,1001.39
2018-12-10T03:28:59.233Z,1001.35
2018-12-10T03:29:59.213Z,1001.41
2018-12-10T03:30:59.233Z,1001.42
2018-12-10T03:31:59.214Z,1001.38
2018-12-10T03:32:59.217Z,1001.41
2018-12-10T03:33:59.182Z,1001.39
2018-12-10T03:34:59.191Z,1001.40
2018-12-10T03:35:59.206Z,1001.46
2018-12-10T03:36:59.174Z,1001.43
2018-12-10T03:37:59.126Z,1001.45
2018-12-10T03:38:59.122Z,1001.47
2018-12-10T03:39:59.171Z,1001.56
2018-12-10T03:40:59.118Z,1001.49
2018-12-10T03:41:59.088Z,1001.48
2018-12-10T03:42:59.123Z,1001.48
2018-12-10T03:43:59.080Z,1001.51
2018-12-10T03:44:59.074Z,1001.47
2018-12-10T03:45:59.053Z,1001.51
2018-12-10T03:46:59.038Z,1001.36
2018-12-10T03:47:59.020Z,1001.46
2018-12-10T03:48:59.009Z,1001.49
2018-12-10T03:49:59.087Z,1001.49
2018-12-10T03:50:59.012Z,1001.53
2018-12-10T03:51:58.985Z,1001.55
2018-12-10T03:52:58.981Z,1001.58
2018-12-10T03:54:00.046Z,1001.60
2018-12-10T03:54:58.974Z,1001.54
2018-12-10T03:55:58.938Z,1001.55
2018-12-10T03:56:58.941Z,1001.56
2018-12-10T03:57:58.915Z,1001.60
2018-12-10T03:58:58.906Z,1001.67
2018-12-10T03:59:58.902Z,1001.66
2018-12-10T04:00:58.909Z,1001.73
2018-12-10T04:01:58.876Z,1001.77
2018-12-10T04:02:58.871Z,1001.74
2018-12-10T04:03:58.873Z,1001.74
2018-12-10T04:04:58.866Z,1001.82
2018-12-10T04:05:58.856Z,1001.79
2018-12-10T04:06:58.822Z,1001.79
2018-12-10T04:07:58.810Z,1001.76
2018-12-10T04:08:58.912Z,1001.73
2018-12-10T04:09:58.805Z,1001.71
2018-12-10T04:10:58.784Z,1001.72
2018-12-10T04:11:58.775Z,1001.79
2018-12-10T04:12:58.761Z,1001.80
2018-12-10T04:13:58.753Z,1001.75
2018-12-10T04:14:58.762Z,1001.82
2018-12-10T04:15:58.746Z,1001.72
2018-12-10T04:16:58.714Z,1001.74
2018-12-10T04:17:58.710Z,1001.70
2018-12-10T04:18:58.699Z,1001.74
2018-12-10T04:19:58.707Z,1001.81
2018-12-10T04:20:58.673Z,1001.80
2018-12-10T04:21:58.666Z,1001.79
2018-12-10T04:22:58.683Z,1001.78
2018-12-10T04:23:59.297Z,1001.89
2018-12-10T04:24:58.677Z,1001.80
2018-12-10T04:25:58.647Z,1001.85
2018-12-10T04:26:58.612Z,1001.77
2018-12-10T04:27:58.600Z,1001.80
2018-12-10T04:28:58.614Z,1001.80
2018-12-10T04:29:58.613Z,1001.80
2018-12-10T04:30:58.566Z,1001.77
2018-12-10T04:31:58.559Z,1001.74
2018-12-10T04:32:58.552Z,1001.85
2018-12-10T04:33:58.536Z,1001.85
2018-12-10T04:34:58.567Z,1001.84
2018-12-10T04:35:58.536Z,1001.87
2018-12-10T04:36:58.508Z,1001.93
2018-12-10T04:37:58.498Z,1001.92
2018-12-10T04:38:58.488Z,1001.88
2018-12-10T04:39:58.499Z,1001.88
2018-12-10T04:40:58.460Z,1001.88
2018-12-10T04:41:58.462Z,1001.91
2018-12-10T04:42:58.440Z,1001.90
2018-12-10T04:43:58.436Z,1001.99
2018-12-10T04:44:58.424Z,1001.91
2018-12-10T04:45:58.431Z,1001.95
2018-12-10T04:47:00.130Z,1001.89
2018-12-10T04:47:58.403Z,1001.93
2018-12-10T04:48:58.386Z,1001.92
2018-12-10T04:49:58.388Z,1002.02
2018-12-10T04:50:58.363Z,1002.05
2018-12-10T04:51:58.344Z,1002.08
2018-12-10T04:52:58.332Z,1002.09
2018-12-10T04:53:58.327Z,1002.10
2018-12-10T04:54:58.346Z,1002.12
2018-12-10T04:55:58.312Z,1002.15
2018-12-10T04:56:58.299Z,1002.17
2018-12-10T04:57:58.286Z,1002.22
2018-12-10T04:58:58.275Z,1002.23
2018-12-10T04:59:58.267Z,1002.22
2018-12-10T05:00:58.273Z,1002.26
2018-12-10T05:01:58.264Z,1002.28
2018-12-10T05:02:58.231Z,1002.26
2018-12-10T05:03:58.224Z,1002.25
2018-12-10T05:04:58.231Z,1002.21
2018-12-10T05:05:58.213Z,1002.24
2018-12-10T05:06:58.186Z,1002.25
2018-12-10T05:07:58.191Z,1002.23
2018-12-10T05:08:58.171Z,1002.26
2018-12-10T05:09:58.227Z,1002.30
2018-12-10T05:10:58.251Z,1002.27
2018-12-10T05:11:58.167Z,1002.25
2018-12-10T05:12:58.128Z,1002.30
2018-12-10T05:13:58.112Z,1002.35
2018-12-10T05:14:58.104Z,1002.35
2018-12-10T05:15:58.119Z,1002.34
2018-12-10T05:16:58.130Z,1002.32
2018-12-10T05:17:58.079Z,1002.34
2018-12-10T05:18:58.072Z,1002.38
2018-12-10T05:19:58.064Z,1002.42
2018-12-10T05:20:58.039Z,1002.43
2018-12-10T05:21:58.034Z,1002.45
2018-12-10T05:22:58.048Z,1002.48
2018-12-10T05:23:58.008Z,1002.48
2018-12-10T05:24:57.998Z,1002.47
2018-12-10T05:25:57.985Z,1002.48
2018-12-10T05:26:57.993Z,1002.46
2018-12-10T05:27:57.969Z,1002.54
2018-12-10T05:28:57.994Z,1002.53
2018-12-10T05:29:57.954Z,1002.54
2018-12-10T05:30:57.938Z,1002.49
2018-12-10T05:31:57.926Z,1002.55
2018-12-10T05:32:57.915Z,1002.49
2018-12-10T05:33:57.904Z,1002.54
2018-12-10T05:34:57.930Z,1002.56
2018-12-10T05:35:57.888Z,1002.46
2018-12-10T05:36:57.877Z,1002.52
2018-12-10T05:37:57.884Z,1002.55
2018-12-10T05:38:57.851Z,1002.52
2018-12-10T05:39:57.861Z,1002.56
2018-12-10T05:40:57.837Z,1002.55
2018-12-10T05:41:57.872Z,1002.57
2018-12-10T05:42:57.811Z,1002.64
2018-12-10T05:43:57.799Z,1002.66
2018-12-10T05:44:57.807Z,1002.69
2018-12-10T05:45:57.773Z,1002.74
2018-12-10T05:46:58.227Z,1002.77
2018-12-10T05:47:59.649Z,1002.78
2018-12-10T05:48:58.755Z,1002.84
2018-12-10T05:49:57.740Z,1002.81
2018-12-10T05:50:57.727Z,1002.80
2018-12-10T05:51:57.713Z,1002.81
2018-12-10T05:52:57.720Z,1002.84
2018-12-10T05:53:57.695Z,1002.88
2018-12-10T05:54:57.687Z,1002.88
2018-12-10T05:55:57.673Z,1002.91
2018-12-10T05:56:57.659Z,1002.88
2018-12-10T05:57:57.681Z,1002.87
2018-12-10T05:58:57.676Z,1002.90
2018-12-10T05:59:57.671Z,1002.86
2018-12-10T06:00:57.639Z,1002.90
2018-12-10T06:01:57.646Z,1002.91
2018-12-10T06:02:57.650Z,1002.92
2018-12-10T06:03:57.581Z,1002.90
2018-12-10T06:04:57.588Z,1002.86
2018-12-10T06:05:57.567Z,1002.89
2018-12-10T06:06:57.553Z,1002.87
2018-12-10T06:07:57.564Z,1002.89
2018-12-10T06:08:57.534Z,1002.93
2018-12-10T06:09:57.540Z,1002.90
2018-12-10T06:10:57.523Z,1002.88
2018-12-10T06:11:57.506Z,1002.90
2018-12-10T06:12:57.512Z,1002.93
2018-12-10T06:13:57.484Z,1002.89
2018-12-10T06:14:57.468Z,1002.91
2018-12-10T06:15:57.459Z,1002.89
2018-12-10T06:16:57.443Z,1002.98
2018-12-10T06:17:57.457Z,1002.97
2018-12-10T06:18:57.447Z,1003.02
2018-12-10T06:19:57.420Z,1003.01
2018-12-10T06:20:57.408Z,1003.00
2018-12-10T06:21:57.394Z,1003.03
2018-12-10T06:22:57.390Z,1003.05
2018-12-10T06:23:57.389Z,1002.96
2018-12-10T06:24:57.423Z,1003.02
2018-12-10T06:25:57.356Z,1002.99
2018-12-10T06:26:57.347Z,1002.97
2018-12-10T06:27:57.330Z,1003.01
2018-12-10T06:28:57.346Z,1002.91
2018-12-10T06:29:57.306Z,1002.93
2018-12-10T06:30:57.322Z,1002.96
2018-12-10T06:31:57.288Z,1002.98
2018-12-10T06:32:57.282Z,1003.00
2018-12-10T06:33:57.303Z,1003.05
2018-12-10T06:34:57.256Z,1003.04
2018-12-10T06:35:57.260Z,1003.07
2018-12-10T06:36:57.250Z,1003.08
2018-12-10T06:37:57.222Z,1003.06
2018-12-10T06:38:57.229Z,1003.05
2018-12-10T06:39:57.204Z,1003.08
2018-12-10T06:40:57.208Z,1003.08
2018-12-10T06:41:57.178Z,1003.09
2018-12-10T06:42:57.171Z,1003.08
2018-12-10T06:43:57.179Z,1003.08
2018-12-10T06:44:57.179Z,1003.09
2018-12-10T06:45:57.144Z,1003.10
2018-12-10T06:46:57.150Z,1003.07
2018-12-10T06:47:58.419Z,1003.06
2018-12-10T06:48:57.114Z,1003.13
2018-12-10T06:49:57.098Z,1003.12
2018-12-10T06:50:57.108Z,1003.19
2018-12-10T06:51:57.072Z,1003.24
2018-12-10T06:52:57.078Z,1003.37
2018-12-10T06:53:58.464Z,1003.45
2018-12-10T06:54:57.057Z,1003.38
2018-12-10T06:55:57.036Z,1003.33
2018-12-10T06:56:57.024Z,1003.21
2018-12-10T06:57:57.011Z,1003.44
2018-12-10T06:58:57.019Z,1003.39
2018-12-10T06:59:56.996Z,1003.40
2018-12-10T07:00:56.983Z,1003.44
2018-12-10T07:01:56.972Z,1003.42
2018-12-10T07:02:56.966Z,1003.48
2018-12-10T07:03:56.970Z,1003.50
2018-12-10T07:04:56.958Z,1003.46
2018-12-10T07:05:56.930Z,1003.42
2018-12-10T07:06:56.914Z,1003.38
2018-12-10T07:07:56.910Z,1003.56
2018-12-10T07:08:56.915Z,1003.56
2018-12-10T07:09:56.891Z,1003.56
2018-12-10T07:10:56.887Z,1003.49
2018-12-10T07:11:56.862Z,1003.54
2018-12-10T07:12:56.862Z,1003.54
2018-12-10T07:13:56.864Z,1003.56
2018-12-10T07:14:56.836Z,1003.61
2018-12-10T07:15:56.818Z,1003.62
2018-12-10T07:16:56.810Z,1003.61
2018-12-10T07:17:56.799Z,1003.58
2018-12-10T07:18:56.825Z,1003.63
2018-12-10T07:19:56.787Z,1003.62
2018-12-10T07:20:56.770Z,1003.66
2018-12-10T07:21:56.763Z,1003.64
2018-12-10T07:22:56.752Z,1003.65
2018-12-10T07:23:56.733Z,1003.69
2018-12-10T07:24:56.752Z,1003.72
2018-12-10T07:25:56.716Z,1003.73
2018-12-10T07:26:56.706Z,1003.69
2018-12-10T07:27:56.699Z,1003.70
2018-12-10T07:28:58.249Z,1003.72
2018-12-10T07:29:56.674Z,1003.73
2018-12-10T07:30:56.659Z,1003.72
2018-12-10T07:31:56.656Z,1003.74
2018-12-10T07:32:56.642Z,1003.70
2018-12-10T07:33:56.649Z,1003.72
2018-12-10T07:34:56.648Z,1003.71
2018-12-10T07:35:56.610Z,1003.71
2018-12-10T07:36:56.597Z,1003.70
2018-12-10T07:37:56.587Z,1003.73
2018-12-10T07:38:56.605Z,1003.77
2018-12-10T07:39:56.570Z,1003.74
2018-12-10T07:40:56.558Z,1003.77
2018-12-10T07:41:56.547Z,1003.68
2018-12-10T07:42:56.544Z,1003.75
2018-12-10T07:43:56.555Z,1003.82
2018-12-10T07:44:56.629Z,1003.81
2018-12-10T07:45:56.508Z,1003.86
2018-12-10T07:46:56.497Z,1003.89
2018-12-10T07:47:56.486Z,1003.88
2018-12-10T07:48:56.469Z,1003.89
2018-12-10T07:49:56.479Z,1003.90
2018-12-10T07:50:56.448Z,1003.86
2018-12-10T07:51:56.443Z,1003.86
2018-12-10T07:52:56.431Z,1003.87
2018-12-10T07:53:56.419Z,1003.85
2018-12-10T07:54:56.432Z,1003.90
2018-12-10T07:55:56.393Z,1003.92
2018-12-10T07:56:56.386Z,1003.94
2018-12-10T07:57:56.383Z,1003.95
2018-12-10T07:58:56.365Z,1003.96
2018-12-10T07:59:56.389Z,1003.96
2018-12-10T08:00:56.345Z,1003.95
2018-12-10T08:01:56.336Z,1003.98
2018-12-10T08:02:56.319Z,1003.98
2018-12-10T08:03:56.317Z,1004.00
2018-12-10T08:04:56.328Z,1003.98
2018-12-10T08:05:56.296Z,1003.90
2018-12-10T08:06:56.284Z,1003.94
2018-12-10T08:07:56.267Z,1003.90
2018-12-10T08:08:56.259Z,1003.91
2018-12-10T08:09:56.248Z,1003.92
2018-12-10T08:10:56.262Z,1003.93
2018-12-10T08:11:56.233Z,1003.93
2018-12-10T08:12:56.219Z,1003.97
2018-12-10T08:13:56.210Z,1004.01
2018-12-10T08:14:56.202Z,1003.97
2018-12-10T08:15:56.202Z,1003.99
2018-12-10T08:16:56.190Z,1004.03
2018-12-10T08:17:56.167Z,1004.04
2018-12-10T08:18:56.203Z,1004.06
2018-12-10T08:19:56.143Z,1004.08
2018-12-10T08:21:02.229Z,1004.09
2018-12-10T08:21:57.121Z,1004.09
2018-12-10T08:22:56.215Z,1004.13
2018-12-10T08:23:56.106Z,1004.10
2018-12-10T08:24:56.135Z,1004.12
2018-12-10T08:25:56.122Z,1004.16
2018-12-10T08:26:56.074Z,1004.16
2018-12-10T08:27:56.061Z,1004.19
2018-12-10T08:29:57.056Z,1004.18
2018-12-10T08:30:56.027Z,1004.26
2018-12-10T08:31:23.855Z,1004.18
2018-12-10T08:31:56.051Z,1004.27
2018-12-10T08:32:56.007Z,1004.25
2018-12-10T08:33:55.995Z,1004.28
2018-12-10T08:34:56.008Z,1004.31
2018-12-10T08:35:55.978Z,1004.32
2018-12-10T08:36:55.965Z,1004.35
2018-12-10T08:37:55.966Z,1004.30
2018-12-10T08:38:55.947Z,1004.30
2018-12-10T08:39:55.935Z,1004.35
2018-12-10T08:40:55.945Z,1004.38
2018-12-10T08:41:55.921Z,1004.36
2018-12-10T08:42:55.898Z,1004.36
2018-12-10T08:43:55.891Z,1004.31
2018-12-10T08:44:55.904Z,1004.29
2018-12-10T08:45:55.887Z,1004.32
2018-12-10T08:46:55.883Z,1004.34
2018-12-10T08:47:55.841Z,1004.34
2018-12-10T08:48:55.833Z,1004.39
2018-12-10T08:49:55.846Z,1004.37
2018-12-10T08:50:55.816Z,1004.34
2018-12-10T08:51:55.799Z,1004.32
2018-12-10T08:52:55.789Z,1004.33
2018-12-10T08:53:55.785Z,1004.37
2018-12-10T08:54:55.791Z,1004.37
2018-12-10T08:55:55.786Z,1004.34
2018-12-10T08:56:55.749Z,1004.39
2018-12-10T08:57:55.737Z,1004.36
2018-12-10T08:58:55.733Z,1004.39
2018-12-10T08:59:55.710Z,1004.44
2018-12-10T09:00:55.727Z,1004.48
2018-12-10T09:01:55.692Z,1004.46
2018-12-10T09:02:55.681Z,1004.44
2018-12-10T09:03:55.679Z,1004.42
2018-12-10T09:04:55.664Z,1004.40
2018-12-10T09:05:55.668Z,1004.38
2018-12-10T09:06:55.637Z,1004.44
2018-12-10T09:07:55.632Z,1004.40
2018-12-10T09:08:55.626Z,1004.40
2018-12-10T09:09:55.609Z,1004.42
2018-12-10T09:10:55.623Z,1004.46
2018-12-10T09:11:55.585Z,1004.39
2018-12-10T09:12:55.578Z,1004.40
2018-12-10T09:13:55.565Z,1004.45
2018-12-10T09:14:55.553Z,1004.46
2018-12-10T09:15:55.570Z,1004.47
2018-12-10T09:16:55.534Z,1004.42
2018-12-10T09:17:55.527Z,1004.43
2018-12-10T09:18:55.527Z,1004.43
2018-12-10T09:19:55.502Z,1004.45
2018-12-10T09:20:55.508Z,1004.43
2018-12-10T09:21:55.495Z,1004.42
2018-12-10T09:22:55.483Z,1004.43
2018-12-10T09:23:55.452Z,1004.40
2018-12-10T09:24:55.445Z,1004.50
2018-12-10T09:25:55.451Z,1004.53
2018-12-10T09:26:55.425Z,1004.51
2018-12-10T09:27:55.415Z,1004.52
2018-12-10T09:28:55.409Z,1004.55
2018-12-10T09:29:55.402Z,1004.58
2018-12-10T09:30:55.405Z,1004.61
2018-12-10T09:31:55.367Z,1004.64
2018-12-10T09:32:55.364Z,1004.71
2018-12-10T09:33:55.349Z,1004.70
2018-12-10T09:34:55.334Z,1004.76
2018-12-10T09:35:55.354Z,1004.79
2018-12-10T09:36:55.318Z,1004.81
2018-12-10T09:37:55.304Z,1004.79
2018-12-10T09:38:55.292Z,1004.77
2018-12-10T09:39:55.297Z,1004.81
2018-12-10T09:40:55.300Z,1004.77
2018-12-10T09:41:55.264Z,1004.76
2018-12-10T09:42:55.261Z,1004.74
2018-12-10T09:43:55.240Z,1004.73
2018-12-10T09:44:55.341Z,1004.77
2018-12-10T09:45:55.243Z,1004.78
2018-12-10T09:46:59.122Z,1004.76
2018-12-10T09:47:55.203Z,1004.81
2018-12-10T09:48:55.198Z,1004.78
2018-12-10T09:49:55.179Z,1004.72
2018-12-10T09:50:55.212Z,1004.75
2018-12-10T09:51:55.157Z,1004.77
2018-12-10T09:52:55.148Z,1004.71
2018-12-10T09:53:55.137Z,1004.73
2018-12-10T09:54:55.128Z,1004.75
2018-12-10T09:55:55.111Z,1004.70
2018-12-10T09:56:55.120Z,1004.73
2018-12-10T09:57:55.096Z,1004.71
2018-12-10T09:58:55.080Z,1004.72
2018-12-10T09:59:55.077Z,1004.76
2018-12-10T10:00:55.064Z,1004.73
2018-12-10T10:01:55.069Z,1004.72
2018-12-10T10:02:55.049Z,1004.72
2018-12-10T10:03:55.026Z,1004.72
2018-12-10T10:04:55.026Z,1004.69
2018-12-10T10:05:55.016Z,1004.65
2018-12-10T10:06:55.018Z,1004.66
2018-12-10T10:07:54.993Z,1004.69
2018-12-10T10:08:54.976Z,1004.59
2018-12-10T10:09:54.966Z,1004.65
2018-12-10T10:10:54.953Z,1004.68
2018-12-10T10:11:54.958Z,1004.64
2018-12-10T10:12:54.952Z,1004.67
2018-12-10T10:13:54.927Z,1004.70
2018-12-10T10:14:54.920Z,1004.68
2018-12-10T10:15:54.914Z,1004.72
2018-12-10T10:16:54.888Z,1004.71
2018-12-10T10:17:54.898Z,1004.66
2018-12-10T10:18:54.869Z,1004.58
2018-12-10T10:19:54.870Z,1004.58
2018-12-10T10:20:54.868Z,1004.59
2018-12-10T10:21:54.865Z,1004.59
2018-12-10T10:22:54.830Z,1004.61
2018-12-10T10:23:54.814Z,1004.61
2018-12-10T10:24:54.805Z,1004.64
2018-12-10T10:25:54.834Z,1004.61
2018-12-10T10:26:54.798Z,1004.57
2018-12-10T10:27:54.774Z,1004.61
2018-12-10T10:28:54.766Z,1004.68
2018-12-10T10:29:54.752Z,1004.63
2018-12-10T10:30:54.759Z,1004.64
2018-12-10T10:31:54.759Z,1004.60
2018-12-10T10:32:54.725Z,1004.58
2018-12-10T10:33:54.710Z,1004.58
2018-12-10T10:34:54.705Z,1004.66
2018-12-10T10:35:54.709Z,1004.67
2018-12-10T10:36:54.676Z,1004.65
2018-12-10T10:37:54.668Z,1004.68
2018-12-10T10:38:54.655Z,1004.60
2018-12-10T10:39:54.651Z,1004.60
2018-12-10T10:40:54.644Z,1004.61
2018-12-10T10:41:54.650Z,1004.66
2018-12-10T10:42:54.613Z,1004.71
2018-12-10T10:43:54.612Z,1004.68
2018-12-10T10:44:54.592Z,1004.68
2018-12-10T10:45:54.585Z,1004.69
2018-12-10T10:46:54.579Z,1004.70
2018-12-10T10:47:54.580Z,1004.69
2018-12-10T10:48:54.551Z,1004.61
2018-12-10T10:49:54.541Z,1004.58
2018-12-10T10:50:54.532Z,1004.42
2018-12-10T10:51:54.539Z,1004.58
2018-12-10T10:52:54.508Z,1004.53
2018-12-10T10:53:54.503Z,1004.63
2018-12-10T10:54:54.490Z,1004.64
2018-12-10T10:55:54.490Z,1004.67
2018-12-10T10:56:54.483Z,1004.68
2018-12-10T10:57:54.455Z,1004.77
2018-12-10T10:58:54.468Z,1004.67
2018-12-10T10:59:54.440Z,1004.70
2018-12-10T11:00:54.444Z,1004.64
2018-12-10T11:01:54.411Z,1004.71
2018-12-10T11:02:54.397Z,1004.68
2018-12-10T11:03:54.392Z,1004.69
2018-12-10T11:04:54.382Z,1004.63
2018-12-10T11:05:54.389Z,1004.56
2018-12-10T11:06:54.357Z,1004.66
2018-12-10T11:07:54.344Z,1004.54
2018-12-10T11:08:54.346Z,1004.56
2018-12-10T11:09:54.340Z,1004.54
2018-12-10T11:10:54.331Z,1004.57
2018-12-10T11:11:54.305Z,1004.58
2018-12-10T11:12:54.314Z,1004.56
2018-12-10T11:13:54.319Z,1004.58
2018-12-10T11:14:54.279Z,1004.61
2018-12-10T11:15:54.269Z,1004.65
2018-12-10T11:16:54.253Z,1004.57
2018-12-10T11:17:54.269Z,1004.58
2018-12-10T11:18:54.236Z,1004.69
2018-12-10T11:19:54.219Z,1004.72
2018-12-10T11:20:54.208Z,1004.64
2018-12-10T11:21:54.194Z,1004.64
2018-12-10T11:22:54.186Z,1004.64
2018-12-10T11:23:54.197Z,1004.67
2018-12-10T11:24:54.200Z,1004.66
2018-12-10T11:25:54.158Z,1004.64
2018-12-10T11:26:54.145Z,1004.55
2018-12-10T11:27:54.152Z,1004.59
2018-12-10T11:28:54.121Z,1004.56
2018-12-10T11:29:54.126Z,1004.58
2018-12-10T11:30:54.130Z,1004.57
2018-12-10T11:31:54.102Z,1004.52
2018-12-10T11:32:54.101Z,1004.55
2018-12-10T11:33:54.079Z,1004.55
2018-12-10T11:34:54.062Z,1004.51
2018-12-10T11:35:54.051Z,1004.50
2018-12-10T11:36:54.043Z,1004.54
2018-12-10T11:37:54.031Z,1004.52
2018-12-10T11:38:58.074Z,1004.49
2018-12-10T11:39:54.005Z,1004.49
2018-12-10T11:40:53.994Z,1004.44
2018-12-10T11:41:53.989Z,1004.45
2018-12-10T11:42:53.996Z,1004.54
2018-12-10T11:43:53.979Z,1004.56
2018-12-10T11:44:53.956Z,1004.50
2018-12-10T11:45:53.938Z,1004.49
2018-12-10T11:46:53.931Z,1004.45
2018-12-10T11:47:53.943Z,1004.47
2018-12-10T11:48:53.919Z,1004.50
2018-12-10T11:49:53.904Z,1004.47
2018-12-10T11:50:53.894Z,1004.43
2018-12-10T11:51:53.876Z,1004.42
2018-12-10T11:52:53.890Z,1004.48
2018-12-10T11:53:53.854Z,1004.43
2018-12-10T11:54:53.845Z,1004.44
2018-12-10T11:55:53.838Z,1004.40
2018-12-10T11:56:53.853Z,1004.50
2018-12-10T11:57:53.837Z,1004.43
2018-12-10T11:58:53.816Z,1004.42
2018-12-10T11:59:53.790Z,1004.46
2018-12-10T12:00:53.798Z,1004.51
2018-12-10T12:01:53.794Z,1004.42
2018-12-10T12:02:53.785Z,1004.51
2018-12-10T12:03:53.747Z,1004.52
2018-12-10T12:04:54.602Z,1004.52
2018-12-10T12:05:53.726Z,1004.53
2018-12-10T12:06:53.723Z,1004.56